Effective Sunday, March 17, 2024, the National Weather Service National Data Buoy Center will discontinue its Dial-A-Buoy Interactive Voice Response system. For more information, see Service Change Notice 24-06 (PDF).

Station CPNW1 - 9449427 - Cherry Point North Dock Met Image indicating link to RSS feed of recent meteorological observations for station CPNW1


Conditions at CPNW1 as of
(9:18 am PST)
1718 GMT on 03/02/2024:
     

Click on the graph icon in the table below to see a time series plot of the last five days of that observation.

5-day plot - Wind Direction Wind Direction (WDIR):SSE ( 160 deg true )
5-day plot - Wind Speed Wind Speed (WSPD): 6.0 kts
5-day plot - Wind Gust Wind Gust (GST): 11.1 kts
5-day plot - Air Temperature Air Temperature (ATMP): 41.4 °F
5-day plot - Wind Chill Wind Chill (CHILL): 36.9 °F
5-day plot - Wind Speed at 10 Meters Wind Speed at 10 meters (WSPD10M): 5.8 kts
5-day plot - Wind Speed at 20 Meters Wind Speed at 20 meters (WSPD20M): 5.8 kts
5-day plot -  Wind Speed, Wind Gust and Atmospheric Pressure Combined plot of Wind Speed, Gust, and Air Pressure
NOS Water Level Observation Network Water Level
Previous observations
TIME
(PST)
5-day plot - Wind Direction
WDIR
 
5-day plot - Wind Speed
WSPD
kts
5-day plot - Wind Gust
GST
kts
5-day plot - Wave Height
WVHT
ft
5-day plot - Dominant Wave Period
DPD
sec
5-day plot - Average Wave Period
APD
sec
5-day plot - Mean Wave Direction
MWD
 
5-day plot - Atmospheric Pressure
PRES
in
5-day plot - Pressure Tendency
PTDY
in
5-day plot - Air Temperature
ATMP
°F
5-day plot - Water Temperature
WTMP
°F
5-day plot - Dew Point
DEWP
°F
5-day plot - Salinity
SAL
psu
5-day plot - Visibility
VIS
nmi
5-day plot - Tide (above MLLW)
TIDE
ft
2024-03-02 09:12 amSSE 7.0 14.0------ 41.2-----
2024-03-02 09:06 amSSE 6.0 14.0------ 41.2-----
2024-03-02 09:00 amSSE 8.0 14.0------ 41.0-----
2024-03-02 08:54 amSSE 8.9 14.0------ 41.0-----
2024-03-02 08:48 amSSE 8.9 15.9------ 40.8-----
2024-03-02 08:42 amSSE 11.1 15.9------ 40.8-----
2024-03-02 08:36 am SE 12.0 17.1------ 40.8-----
2024-03-02 08:30 am SE 13.0 21.0------ 40.8-----
2024-03-02 08:24 am SE 14.0 18.1------ 40.6-----
2024-03-02 08:18 am SE 12.0 15.9------ 40.8-----
2024-03-02 08:12 am SE 13.0 17.1------ 40.6-----
2024-03-02 08:06 am SE 12.0 17.1------ 40.8-----
2024-03-02 08:00 am SE 14.0 19.0------ 40.6-----
2024-03-02 07:54 am SE 12.0 19.0------ 40.8-----
2024-03-02 07:48 am SE 12.0 19.0------ 40.5-----
2024-03-02 07:42 amESE 8.0 11.1------ 39.7-----
2024-03-02 07:36 am E 7.0 9.9------ 37.2-----
2024-03-02 07:30 am E 7.0 9.9------------
2024-03-02 07:24 am E 6.0 8.9------------
2024-03-02 07:18 amENE 7.0 8.9------ 36.7-----
2024-03-02 07:12 amENE 8.0 9.9------ 36.3-----
2024-03-02 07:06 amENE 8.0 9.9------ 36.3-----
2024-03-02 07:00 am NE 8.0 12.0------ 36.5-----
2024-03-02 06:54 amENE 8.9 12.0------ 36.3-----
2024-03-02 06:48 amENE 8.9 13.0------ 36.3-----
2024-03-02 06:42 amENE 9.9 12.0------ 36.3-----
2024-03-02 06:36 am NE 9.9 13.0------ 36.3-----
2024-03-02 06:30 am NE 11.1 14.0------ 36.3-----
2024-03-02 06:24 am NE 12.0 13.0------ 36.3-----
2024-03-02 06:18 am NE 8.9 12.0------ 36.5-----
2024-03-02 06:12 am NE 9.9 14.0------ 36.1-----
2024-03-02 06:06 am NE 12.0 14.0------ 36.0-----
2024-03-02 06:00 am NE 11.1 15.0------ 36.1-----
2024-03-02 05:54 am NE 9.9 17.1------ 36.1-----
2024-03-02 05:48 amENE 13.0 17.1------ 36.5-----
2024-03-02 05:42 amENE 13.0 15.9------ 36.5-----
2024-03-02 05:36 amENE 12.0 15.9------ 36.7-----
2024-03-02 05:30 amENE 13.0 17.1------ 36.5-----
2024-03-02 05:24 amENE 12.0 17.1------ 36.3-----
2024-03-02 05:18 amENE 9.9 14.0------ 36.3-----
2024-03-02 05:12 amENE 11.1 14.0------ 36.1-----
2024-03-02 05:06 amENE 9.9 13.0------ 36.1-----
2024-03-02 05:00 am NE 8.0 11.1------ 36.3-----
2024-03-02 04:54 amENE 7.0 11.1------ 36.5-----
2024-03-02 04:48 amENE 8.9 13.0------------
2024-03-02 04:42 am NE 8.9 13.0------------
2024-03-02 04:36 am NE 9.9 13.0------------
2024-03-02 04:30 amENE 8.9 12.0------ 36.3-----
2024-03-02 04:24 amENE 8.9 12.0------ 36.3-----
2024-03-02 04:18 amENE 7.0 9.9------ 36.3-----
2024-03-02 04:12 am E 7.0 12.0------ 36.5-----
2024-03-02 04:06 am E 6.0 9.9------ 36.5-----
2024-03-02 04:00 am E 8.9 11.1------ 36.1-----
2024-03-02 03:54 amENE 8.0 9.9------ 36.1-----
2024-03-02 03:48 am E 7.0 11.1------ 36.3-----
2024-03-02 03:42 am E 8.0 12.0------ 36.3-----
2024-03-02 03:36 am E 8.9 11.1------ 36.5-----
2024-03-02 03:30 am E 8.9 13.0------ 37.0-----
2024-03-02 03:24 amESE 12.0 15.9------ 37.4-----
2024-03-02 03:18 amESE 11.1 14.0------ 38.5-----
2024-03-02 03:12 am SE 14.0 18.1------ 38.5-----
2024-03-02 03:06 amESE 12.0 15.0------ 38.8-----
2024-03-02 03:00 amESE 9.9 14.0------------
2024-03-02 02:54 am E 14.0 15.9------------
2024-03-02 02:48 am E 12.0 15.0------------
2024-03-02 02:42 amENE 12.0 15.0------------
2024-03-02 02:36 amENE 12.0 15.0------------
2024-03-02 02:30 amENE 12.0 15.0------ 39.0-----
2024-03-02 02:24 amENE 14.0 18.1------ 39.0-----
2024-03-02 02:18 am E 14.0 17.1------------
2024-03-02 02:12 amENE 12.0 18.1------------
2024-03-02 02:06 amENE 15.0 19.0------------
2024-03-02 02:00 amENE 13.0 15.9------ 38.8-----
2024-03-02 01:54 amENE 12.0 17.1------ 38.8-----
2024-03-02 01:48 amENE 13.0 19.0------ 38.7-----
2024-03-02 01:42 am E 11.1 18.1------ 38.7-----
2024-03-02 01:36 amENE 12.0 17.1------ 38.3-----
2024-03-02 01:30 amENE 13.0 17.1------ 38.3-----
2024-03-02 01:24 amENE 13.0 15.9------ 38.3-----
2024-03-02 01:18 amENE 12.0 17.1------ 38.3-----
2024-03-02 01:12 amENE 13.0 15.0------ 38.1-----
2024-03-02 01:06 amENE 12.0 17.1------ 38.1-----
2024-03-02 01:00 amENE 15.0 19.0------ 38.3-----
2024-03-02 12:54 am NE 15.0 20.0------ 38.1-----
2024-03-02 12:48 am NE 13.0 19.0------ 38.1-----
2024-03-02 12:42 amENE 12.0 15.9------ 37.9-----
2024-03-02 12:36 am NE 13.0 15.9------ 37.9-----
2024-03-02 12:30 amENE 12.0 15.9------ 38.1-----
2024-03-02 12:24 amENE 11.1 17.1------ 37.9-----
2024-03-02 12:18 amENE 13.0 17.1------ 38.1-----
2024-03-02 12:12 amENE 12.0 15.0------ 37.9-----
2024-03-02 12:06 amENE 9.9 15.0------ 37.9-----
2024-03-02 12:00 am NE 11.1 13.0------ 37.8-----
2024-03-01 11:54 pmENE 8.9 13.0------ 37.8-----
2024-03-01 11:48 pmENE 11.1 14.0------ 38.1-----
2024-03-01 11:42 pm NE 11.1 14.0------ 38.1-----
2024-03-01 11:36 pmENE 13.0 18.1------ 38.3-----
2024-03-01 11:30 pm NE 14.0 17.1------ 38.3-----
2024-03-01 11:24 pm NE 13.0 17.1------ 38.1-----
2024-03-01 11:18 pm NE 12.0 15.9------ 38.1-----
2024-03-01 11:12 pm NE 14.0 17.1------ 37.9-----
2024-03-01 11:06 pm NE 14.0 18.1------ 38.1-----
2024-03-01 11:00 pm NE 14.0 19.0------ 38.7-----
2024-03-01 10:54 pm NE 14.0 19.0------ 38.5-----
2024-03-01 10:48 pm NE 12.0 15.0------ 38.1-----
2024-03-01 10:42 pmENE 12.0 15.0------ 37.6-----
2024-03-01 10:36 pmENE 11.1 15.0------ 37.8-----
2024-03-01 10:30 pmENE 11.1 15.0------ 37.6-----
2024-03-01 10:24 pm NE 12.0 15.0------ 37.6-----
2024-03-01 10:18 pm NE 9.9 13.0------ 37.6-----
2024-03-01 10:12 pm NE 11.1 15.9------ 37.8-----
2024-03-01 10:06 pm NE 12.0 15.9------ 37.6-----
2024-03-01 10:00 pmENE 11.1 14.0------ 37.6-----
2024-03-01 09:54 pm NE 12.0 15.0------ 37.6-----
2024-03-01 09:48 pm NE 13.0 15.9------ 37.8-----
2024-03-01 09:42 pm NE 13.0 18.1------ 37.9-----
2024-03-01 09:36 pm NE 14.0 17.1------ 37.9-----
2024-03-01 09:30 pm NE 13.0 15.9------ 37.9-----
2024-03-01 09:24 pmENE 12.0 15.0------ 38.1-----
2024-03-01 09:18 pmENE 13.0 15.9------ 38.3-----
2024-03-01 09:12 pmENE 11.1 14.0------ 38.3-----
2024-03-01 09:06 pmENE 11.1 12.0------ 38.3-----
2024-03-01 09:00 pmENE 12.0 15.0------ 38.5-----
2024-03-01 08:54 pmENE 9.9 13.0------ 38.7-----
2024-03-01 08:48 pmENE 9.9 14.0------ 39.0-----
2024-03-01 08:42 pmENE 8.0 12.0------ 39.2-----
2024-03-01 08:36 pmENE 8.9 9.9------ 39.6-----
2024-03-01 08:30 pmENE 8.0 9.9------ 39.7-----
2024-03-01 08:24 pm E 6.0 7.0------ 40.3-----
2024-03-01 08:18 pm E 7.0 8.0------ 40.1-----
2024-03-01 08:12 pm E 7.0 8.0------ 40.3-----
2024-03-01 08:06 pm E 7.0 9.9------ 40.6-----
2024-03-01 08:00 pm E 8.0 9.9------ 40.8-----
2024-03-01 07:54 pm E 7.0 9.9------ 40.6-----
2024-03-01 07:48 pm E 7.0 9.9------ 40.8-----
2024-03-01 07:42 pm E 8.9 11.1------ 40.8-----
2024-03-01 07:36 pm E 8.9 11.1------ 40.8-----
2024-03-01 07:30 pm E 7.0 8.9------ 40.5-----
2024-03-01 07:24 pm E 8.9 12.0------ 41.2-----
2024-03-01 07:18 pmESE 9.9 14.0------ 41.7-----
2024-03-01 07:12 pm SE 9.9 14.0------ 41.7-----
2024-03-01 07:06 pm SE 11.1 14.0------ 41.5-----
2024-03-01 07:00 pm SE 9.9 13.0------ 41.5-----
2024-03-01 06:54 pm SE 9.9 13.0------ 41.5-----
2024-03-01 06:48 pm SE 9.9 15.0------ 41.5-----
2024-03-01 06:42 pm SE 11.1 15.0------ 41.5-----
2024-03-01 06:36 pm SE 9.9 14.0------ 41.5-----
2024-03-01 06:30 pm SE 11.1 15.0------ 41.5-----
2024-03-01 06:24 pmESE 11.1 15.0------ 41.5-----
2024-03-01 06:18 pm SE 12.0 17.1------ 42.1-----
2024-03-01 06:12 pmSSE 8.9 15.9------ 42.3-----
2024-03-01 06:06 pmSSE 9.9 17.1------ 42.1-----
2024-03-01 06:00 pm SE 13.0 17.1------ 41.9-----
2024-03-01 05:54 pm SE 12.0 15.9------ 41.9-----
2024-03-01 05:48 pmSSE 9.9 15.9------ 42.1-----
2024-03-01 05:42 pm SE 13.0 18.1------ 41.9-----
2024-03-01 05:36 pm SE 15.0 20.0------ 41.9-----
2024-03-01 05:30 pmSSE 9.9 19.0------ 42.1-----
2024-03-01 05:24 pmSSE 11.1 18.1------ 42.1-----
2024-03-01 05:18 pmSSE 13.0 18.1------ 42.3-----
2024-03-01 05:12 pmSSE 11.1 18.1------ 42.3-----
2024-03-01 05:06 pm SE 12.0 20.0------ 42.4-----
2024-03-01 05:00 pmSSE 11.1 22.0------ 42.4-----
2024-03-01 04:54 pmSSE 11.1 17.1------ 42.4-----
2024-03-01 04:48 pmSSE 8.9 14.0------ 42.4-----
2024-03-01 04:42 pmSSE 11.1 19.0------ 42.4-----
2024-03-01 04:36 pmSSE 8.0 15.0------ 42.4-----
2024-03-01 04:30 pmSSE 8.0 15.0------ 42.4-----
2024-03-01 04:24 pmSSE 11.1 19.0------ 42.3-----
2024-03-01 04:18 pm S 8.0 15.0------ 42.1-----
2024-03-01 04:12 pmSSE 11.1 21.0------ 41.7-----
2024-03-01 04:06 pm S 9.9 19.0------ 41.9-----
2024-03-01 04:00 pmSSE 14.0 21.0------ 41.7-----
2024-03-01 03:54 pmSSE 17.1 22.9------ 41.5-----
2024-03-01 03:48 pmSSE 12.0 21.0------ 41.7-----
2024-03-01 03:42 pm S 8.9 20.0------ 41.9-----
2024-03-01 03:36 pmSSE 12.0 22.9------ 42.1-----
2024-03-01 03:30 pmSSE 13.0 20.0------ 42.3-----
2024-03-01 03:24 pmSSE 14.0 24.1------ 42.3-----
2024-03-01 03:18 pmSSE 14.0 22.9------ 42.4-----
2024-03-01 03:12 pmSSE 13.0 21.0------ 42.4-----
2024-03-01 03:06 pm S 9.9 19.0------ 42.3-----
2024-03-01 03:00 pmSSE 8.9 17.1------ 42.6-----
2024-03-01 02:54 pmSSE 13.0 20.0------ 42.6-----
2024-03-01 02:48 pmSSE 14.0 20.0------ 42.8-----
2024-03-01 02:42 pmSSE 13.0 18.1------ 42.6-----
2024-03-01 02:36 pmSSE 13.0 19.0------ 42.6-----
2024-03-01 02:30 pmSSE 11.1 19.0------ 42.6-----
2024-03-01 02:24 pm S 8.0 19.0------ 42.6-----
2024-03-01 02:18 pm S 11.1 22.9------ 42.8-----
2024-03-01 02:12 pm S 8.9 21.0------ 43.3-----
2024-03-01 02:06 pmSSE 13.0 21.0------ 43.7-----
2024-03-01 02:00 pm S 8.9 19.0------ 43.7-----
2024-03-01 01:54 pm S 8.9 17.1------ 43.7-----
2024-03-01 01:48 pm S 9.9 15.0------ 43.5-----
2024-03-01 01:42 pm S 8.9 17.1------ 43.7-----
2024-03-01 01:36 pmSSE 11.1 15.0------ 43.9-----
2024-03-01 01:30 pm SE 9.9 15.9------ 43.9-----
2024-03-01 01:24 pm SE 12.0 17.1------ 43.9-----
2024-03-01 01:18 pmSSE 11.1 18.1------ 43.7-----
2024-03-01 01:12 pmSSE 11.1 18.1------ 43.9-----
2024-03-01 01:06 pmSSE 11.1 18.1------ 43.9-----
2024-03-01 01:00 pmSSE 8.9 15.0------ 43.7-----
2024-03-01 12:54 pmSSE 9.9 17.1------ 43.7-----
2024-03-01 12:48 pm SE 14.0 19.0------ 43.5-----
2024-03-01 12:42 pm SE 15.0 19.0------ 43.7-----
2024-03-01 12:36 pmSSE 12.0 20.0------ 43.7-----
2024-03-01 12:30 pm SE 15.0 20.0------ 43.7-----
2024-03-01 12:24 pmSSE 11.1 22.0------ 43.9-----
2024-03-01 12:18 pmSSE 15.0 22.9------ 43.7-----
2024-03-01 12:12 pmSSE 15.9 25.1------ 43.5-----
2024-03-01 12:06 pmSSE 17.1 24.1------ 43.5-----
2024-03-01 12:00 pm SE 15.9 22.9------ 43.3-----
2024-03-01 11:54 amSSE 15.0 22.0------ 43.2-----
2024-03-01 11:48 amSSE 13.0 22.9------ 43.2-----
2024-03-01 11:42 amSSE 11.1 20.0------ 43.2-----
2024-03-01 11:36 amSSE 14.0 22.0------ 43.0-----
2024-03-01 11:30 am SE 13.0 22.0------ 43.0-----
2024-03-01 11:24 am SE 15.0 22.0------ 42.6-----
2024-03-01 11:18 am SE 17.1 22.9------ 42.6-----
2024-03-01 11:12 amSSE 14.0 22.0------ 42.6-----
2024-03-01 11:06 amSSE 15.0 21.0------ 42.6-----
2024-03-01 11:00 am SE 17.1 21.0------ 42.4-----
2024-03-01 10:54 amSSE 14.0 24.1------ 42.4-----
2024-03-01 10:48 amSSE 17.1 22.0------ 42.1-----
2024-03-01 10:42 amSSE 15.0 22.0------ 42.1-----
2024-03-01 10:36 amSSE 14.0 24.1------ 41.9-----
2024-03-01 10:30 amSSE 15.0 24.1------ 41.7-----
2024-03-01 10:24 amSSE 14.0 22.0------ 41.9-----
2024-03-01 10:18 amSSE 15.0 24.1------ 41.7-----
2024-03-01 10:12 am SE 18.1 24.1------ 41.7-----
2024-03-01 10:06 amSSE 17.1 27.0------ 41.7-----
2024-03-01 10:00 amSSE 18.1 28.0------ 41.4-----
2024-03-01 09:54 am SE 21.0 28.0------ 40.8-----
2024-03-01 09:48 amSSE 15.0 25.1------ 41.2-----
2024-03-01 09:42 am SE 17.1 22.9------ 40.6-----
2024-03-01 09:36 am SE 18.1 24.1------ 40.6-----
2024-03-01 09:30 amSSE 15.9 22.9------ 40.6-----
2024-03-01 09:24 amSSE 14.0 21.0------ 40.3-----
2024-03-01 09:18 amSSE 14.0 22.9------ 40.3-----
2024-03-01 09:12 amSSE 17.1 27.0------ 40.3-----
2024-03-01 09:06 amSSE 15.9 24.1------ 40.1-----
2024-03-01 09:00 am SE 17.1 24.1------ 39.9-----
2024-03-01 08:54 am SE 18.1 24.1------ 39.6-----